Time;durP1;ratioP1;P1;durP2;ratioP2;P2;SDS_P1;SDS_P2;PMS_P1;PMS_P2;Temp;Humidity;BMP_temperature;BMP_pressure;BME280_temperature;BME280_humidity;BME280_pressure;Samples;Min_cycle;Max_cycle;Signal;HPM_P1;HPM_P2
2021/12/22 00:01:24;;;;;;;36.47;19.70;;;-1.00;99.90;;;;;;5092051;28;20044;-73
2021/12/22 00:03:51;;;;;;;34.08;19.33;;;-1.00;99.90;;;;;;5057208;28;20040;-73
2021/12/22 00:06:20;;;;;;;33.95;18.95;;;-1.00;99.90;;;;;;5091280;28;20059;-73
2021/12/22 00:08:46;;;;;;;37.85;19.05;;;-1.00;99.90;;;;;;5073878;28;20048;-73
2021/12/22 00:11:12;;;;;;;32.40;18.42;;;-1.00;99.90;;;;;;5056878;28;20124;-73
2021/12/22 00:13:38;;;;;;;35.33;19.40;;;-1.00;99.90;;;;;;5073911;28;20118;-73
2021/12/22 00:16:04;;;;;;;33.28;18.38;;;-1.00;99.90;;;;;;5092077;28;20052;-73
2021/12/22 00:18:29;;;;;;;33.63;18.40;;;-1.00;99.90;;;;;;5073346;28;20079;-73
2021/12/22 00:20:55;;;;;;;27.92;17.42;;;-1.00;99.90;;;;;;5073607;28;20139;-73
2021/12/22 00:23:21;;;;;;;34.38;18.35;;;-1.00;99.90;;;;;;5091845;28;20040;-73
2021/12/22 00:25:47;;;;;;;36.78;18.90;;;-1.00;99.90;;;;;;5060856;28;20049;-73
2021/12/22 00:28:12;;;;;;;32.42;18.27;;;-1.00;99.90;;;;;;5053104;28;20053;-73
2021/12/22 00:30:39;;;;;;;33.85;18.27;;;-1.00;99.90;;;;;;5053369;28;20036;-73
2021/12/22 00:33:06;;;;;;;26.23;17.25;;;-1.00;99.90;;;;;;5053534;28;20052;-73
2021/12/22 00:35:43;;;;;;;36.10;18.50;;;-1.00;99.90;;;;;;5053072;28;20054;-73
2021/12/22 00:38:11;;;;;;;31.60;19.30;;;-1.00;99.90;;;;;;5053345;28;20048;-73
2021/12/22 00:40:37;;;;;;;33.03;18.50;;;-1.00;99.90;;;;;;5053392;28;20562;-73
2021/12/22 00:43:04;;;;;;;37.25;19.25;;;-1.00;99.90;;;;;;5070470;28;20154;-73
2021/12/22 00:45:32;;;;;;;33.38;18.08;;;-1.00;99.90;;;;;;5071378;28;20040;-73
2021/12/22 00:47:58;;;;;;;33.03;19.08;;;-1.00;99.90;;;;;;5070623;28;20071;-74
2021/12/22 00:50:24;;;;;;;37.30;19.30;;;-1.00;99.90;;;;;;5053150;28;20048;-74
2021/12/22 00:52:50;;;;;;;33.45;18.70;;;-1.00;99.90;;;;;;5070580;28;20116;-74
2021/12/22 00:55:18;;;;;;;32.60;18.95;;;-1.10;99.90;;;;;;5070864;28;20051;-74
2021/12/22 00:57:45;;;;;;;32.42;18.58;;;-1.10;99.90;;;;;;5036311;28;20056;-74
2021/12/22 01:00:11;;;;;;;26.85;17.42;;;-1.10;99.90;;;;;;5036459;28;20388;-74
2021/12/22 01:02:37;;;;;;;33.08;18.88;;;-1.10;99.90;;;;;;5052999;28;20114;-74
2021/12/22 01:05:04;;;;;;;30.95;17.13;;;-1.10;99.90;;;;;;5070278;28;20041;-74
2021/12/22 01:07:30;;;;;;;30.98;17.30;;;-1.10;99.90;;;;;;5036003;28;20059;-74
2021/12/22 01:09:56;;;;;;;27.67;17.35;;;-1.10;99.90;;;;;;5052506;28;20052;-74
2021/12/22 01:12:22;;;;;;;28.70;17.88;;;-1.10;99.90;;;;;;5052876;28;20498;-74
2021/12/22 01:14:47;;;;;;;37.20;17.85;;;-1.10;99.90;;;;;;5070410;28;20083;-74
2021/12/22 01:17:15;;;;;;;31.75;18.33;;;-1.10;99.90;;;;;;5052394;28;20084;-74
2021/12/22 01:20:00;;;;;;;32.28;18.25;;;-1.10;99.90;;;;;;5052317;28;20115;-74
2021/12/22 01:25:01;;;;;;;32.38;18.75;;;-1.10;99.90;;;;;;5057439;28;20052;-74
2021/12/22 01:27:40;;;;;;;30.35;18.58;;;-1.10;99.90;;;;;;5090439;28;20055;-74
2021/12/22 01:30:15;;;;;;;30.98;17.80;;;-1.10;99.90;;;;;;5072356;28;20091;-74
2021/12/22 01:32:42;;;;;;;32.80;18.15;;;-1.20;99.90;;;;;;5072282;28;20533;-74
2021/12/22 01:35:11;;;;;;;30.17;17.70;;;-1.20;99.90;;;;;;5090223;28;20067;-74
2021/12/22 01:37:36;;;;;;;28.00;16.27;;;-1.20;99.90;;;;;;5072445;28;20489;-74
2021/12/22 01:40:04;;;;;;;30.25;18.13;;;-1.20;99.90;;;;;;5071696;28;20044;-73
2021/12/22 01:42:30;;;;;;;31.85;18.60;;;-1.30;99.90;;;;;;5072520;28;20502;-74
2021/12/22 01:45:24;;;;;;;31.83;16.67;;;-1.30;99.90;;;;;;5071742;28;20134;-74
2021/12/22 01:50:41;;;;;;;28.83;17.27;;;-1.30;99.90;;;;;;5090365;28;20399;-74
2021/12/22 01:53:21;;;;;;;28.83;17.23;;;-1.30;99.90;;;;;;5089840;28;20555;-74
2021/12/22 01:56:23;;;;;;;30.60;17.23;;;-1.30;99.90;;;;;;5089859;28;20042;-74
2021/12/22 01:58:53;;;;;;;29.02;17.45;;;-1.30;99.90;;;;;;5090024;28;20046;-74
2021/12/22 02:01:19;;;;;;;29.85;17.27;;;-1.30;99.90;;;;;;5071561;28;20132;-74
2021/12/22 02:03:48;;;;;;;31.95;17.60;;;-1.30;99.90;;;;;;5089952;28;20063;-74
2021/12/22 02:06:14;;;;;;;31.20;17.77;;;-1.30;99.90;;;;;;5089576;28;20067;-74
2021/12/22 02:08:43;;;;;;;33.53;17.35;;;-1.20;99.90;;;;;;5055093;28;20044;-74
2021/12/22 02:11:09;;;;;;;31.23;17.73;;;-1.30;99.90;;;;;;5089326;28;20048;-74
2021/12/22 02:13:39;;;;;;;32.13;17.63;;;-1.30;99.90;;;;;;5090094;28;20044;-74
2021/12/22 02:16:09;;;;;;;31.33;17.60;;;-1.30;99.90;;;;;;5089817;28;20044;-75
2021/12/22 02:18:38;;;;;;;29.83;16.73;;;-1.30;99.90;;;;;;5089823;28;20048;-74
2021/12/22 02:21:05;;;;;;;34.13;17.95;;;-1.30;99.90;;;;;;5089862;28;20048;-74
2021/12/22 02:23:31;;;;;;;32.03;18.45;;;-1.30;99.90;;;;;;5071063;28;20051;-74
2021/12/22 02:26:04;;;;;;;33.08;18.00;;;-1.30;99.90;;;;;;5075190;28;20131;-74
2021/12/22 02:28:33;;;;;;;30.58;18.55;;;-1.30;99.90;;;;;;5051360;28;20128;-74
2021/12/22 02:30:59;;;;;;;35.70;18.48;;;-1.30;99.90;;;;;;5068910;28;20052;-77
2021/12/22 02:33:33;;;;;;;33.13;18.20;;;-1.30;99.90;;;;;;5069279;28;20040;-76
2021/12/22 02:38:36;;;;;;;27.45;17.45;;;-1.40;99.90;;;;;;5069169;28;20139;-76
2021/12/22 02:41:02;;;;;;;30.45;17.85;;;-1.40;99.90;;;;;;5069426;28;20049;-76
2021/12/22 02:43:32;;;;;;;33.75;19.17;;;-1.40;99.90;;;;;;5069199;28;20036;-76
2021/12/22 02:45:59;;;;;;;31.80;17.85;;;-1.40;99.90;;;;;;5069063;28;20055;-76
2021/12/22 02:48:30;;;;;;;37.92;19.65;;;-1.40;99.90;;;;;;5069227;28;20037;-76
2021/12/22 02:50:59;;;;;;;33.33;19.55;;;-1.40;99.90;;;;;;5050837;28;20048;-74
2021/12/22 02:53:30;;;;;;;37.08;19.23;;;-1.40;99.90;;;;;;5051470;28;20095;-74
2021/12/22 02:56:18;;;;;;;40.60;19.58;;;-1.40;99.90;;;;;;5050396;28;20044;-74
2021/12/22 02:59:07;;;;;;;41.13;20.52;;;-1.40;99.90;;;;;;5054341;28;20048;-74
2021/12/22 03:04:22;;;;;;;42.58;20.13;;;-1.50;99.90;;;;;;5072596;28;20528;-74
2021/12/22 03:09:21;;;;;;;36.20;17.60;;;-1.50;99.90;;;;;;5088759;28;20586;-74
2021/12/22 03:11:47;;;;;;;38.60;20.20;;;-1.50;99.90;;;;;;5072910;28;20040;-74
2021/12/22 03:14:14;;;;;;;42.13;19.77;;;-1.60;99.90;;;;;;5072794;28;20139;-74
2021/12/22 03:16:43;;;;;;;33.75;18.55;;;-1.60;99.90;;;;;;5055022;28;20048;-74
2021/12/22 03:19:14;;;;;;;37.08;19.13;;;-1.60;99.90;;;;;;5037690;28;20048;-74
2021/12/22 03:21:42;;;;;;;34.97;17.90;;;-1.60;99.90;;;;;;5072734;28;20421;-74
2021/12/22 03:24:09;;;;;;;37.75;20.17;;;-1.60;99.90;;;;;;5054697;28;20045;-74
2021/12/22 03:26:41;;;;;;;37.35;19.85;;;-1.60;99.90;;;;;;5091845;28;20121;-74
2021/12/22 03:29:08;;;;;;;39.20;18.25;;;-1.70;99.90;;;;;;5092710;28;20055;-74
2021/12/22 03:31:33;;;;;;;32.17;18.33;;;-1.70;99.90;;;;;;5092313;28;20410;-74
2021/12/22 03:33:59;;;;;;;37.28;18.13;;;-1.70;99.90;;;;;;5092654;28;20040;-74
2021/12/22 03:36:25;;;;;;;33.45;16.98;;;-1.70;99.90;;;;;;5085200;28;20061;-74
2021/12/22 03:38:50;;;;;;;36.53;16.73;;;-1.70;99.90;;;;;;5062901;28;20045;-75
2021/12/22 03:41:16;;;;;;;32.88;16.65;;;-1.80;99.90;;;;;;5085894;28;20044;-75
2021/12/22 03:43:42;;;;;;;32.97;16.60;;;-1.80;99.90;;;;;;5074036;28;20070;-75
2021/12/22 03:46:07;;;;;;;27.40;15.73;;;-1.80;99.90;;;;;;5073808;28;20045;-75
2021/12/22 03:48:33;;;;;;;29.05;14.95;;;-1.80;99.90;;;;;;5054501;28;20045;-75
2021/12/22 03:50:58;;;;;;;33.67;16.67;;;-1.80;99.90;;;;;;5072270;28;20044;-75
2021/12/22 03:53:24;;;;;;;29.15;15.93;;;-1.80;99.90;;;;;;5080178;28;20485;-75
2021/12/22 03:55:50;;;;;;;27.10;14.45;;;-1.80;99.90;;;;;;5073885;28;20086;-75
2021/12/22 03:58:16;;;;;;;28.45;14.35;;;-1.90;99.90;;;;;;5092391;28;20429;-75
2021/12/22 04:00:42;;;;;;;28.50;14.82;;;-1.90;99.90;;;;;;5073911;28;20040;-75
2021/12/22 04:03:15;;;;;;;28.50;15.13;;;-1.90;99.90;;;;;;5057146;28;20052;-75
2021/12/22 04:05:41;;;;;;;24.33;14.30;;;-1.90;99.90;;;;;;5073311;28;20498;-75
2021/12/22 04:08:07;;;;;;;26.73;14.32;;;-2.00;99.90;;;;;;5091550;28;20078;-75
2021/12/22 04:10:33;;;;;;;26.77;13.68;;;-1.90;99.90;;;;;;5064726;28;20442;-75
2021/12/22 04:12:58;;;;;;;28.77;14.40;;;-2.00;99.90;;;;;;5053814;28;20079;-75
2021/12/22 04:15:26;;;;;;;24.05;14.45;;;-2.00;99.90;;;;;;5053395;28;20113;-75
2021/12/22 04:17:52;;;;;;;23.50;12.82;;;-2.00;99.90;;;;;;5037257;28;20091;-75
2021/12/22 04:20:18;;;;;;;23.10;12.30;;;-2.00;99.90;;;;;;5053327;28;20052;-74
2021/12/22 04:22:44;;;;;;;21.85;12.60;;;-2.00;99.90;;;;;;5053352;28;20052;-74
2021/12/22 04:25:10;;;;;;;24.70;12.57;;;-2.10;99.90;;;;;;5036565;28;20160;-74
2021/12/22 04:27:37;;;;;;;27.27;12.77;;;-2.10;99.90;;;;;;5053569;28;20170;-75
2021/12/22 04:30:05;;;;;;;25.25;12.65;;;-2.10;99.90;;;;;;5070672;28;20495;-75
2021/12/22 04:32:30;;;;;;;21.80;12.43;;;-2.10;99.90;;;;;;5053189;28;20044;-74
2021/12/22 04:34:56;;;;;;;23.98;12.32;;;-2.10;99.90;;;;;;5052840;28;20056;-74
2021/12/22 04:37:22;;;;;;;24.50;12.35;;;-2.10;99.90;;;;;;5053230;28;20895;-74
2021/12/22 04:39:47;;;;;;;21.63;12.65;;;-2.10;99.90;;;;;;5052966;28;20047;-74
2021/12/22 04:42:15;;;;;;;26.27;12.50;;;-2.10;99.90;;;;;;5053375;28;20076;-74
2021/12/22 04:44:43;;;;;;;22.17;12.73;;;-2.10;99.90;;;;;;5061762;28;20078;-74
2021/12/22 04:47:09;;;;;;;21.58;12.35;;;-2.10;99.90;;;;;;5090194;28;20044;-74
2021/12/22 04:49:35;;;;;;;20.77;12.23;;;-2.10;99.90;;;;;;5072857;28;20044;-74
2021/12/22 04:52:03;;;;;;;26.08;13.32;;;-2.20;99.90;;;;;;5091134;28;20087;-75
2021/12/22 04:54:34;;;;;;;22.95;12.60;;;-2.20;99.90;;;;;;5073052;28;20121;-75
2021/12/22 04:57:00;;;;;;;24.20;13.05;;;-2.10;99.90;;;;;;5072947;28;20524;-75
2021/12/22 04:59:26;;;;;;;23.92;13.15;;;-2.10;99.90;;;;;;5091295;28;20118;-75
2021/12/22 05:01:52;;;;;;;20.33;12.20;;;-2.20;99.90;;;;;;5072772;28;20044;-75
2021/12/22 05:04:18;;;;;;;22.58;11.38;;;-2.20;99.90;;;;;;5090887;28;20056;-75
2021/12/22 05:06:44;;;;;;;22.45;12.20;;;-2.20;99.90;;;;;;5090607;28;20048;-74
2021/12/22 05:09:09;;;;;;;22.85;12.68;;;-2.20;99.90;;;;;;5072763;28;20040;-74
2021/12/22 05:11:35;;;;;;;21.83;12.25;;;-2.10;99.90;;;;;;5090957;28;20510;-75
2021/12/22 05:14:03;;;;;;;24.88;12.43;;;-2.20;99.90;;;;;;5072513;28;20062;-75
2021/12/22 05:16:30;;;;;;;27.52;13.55;;;-2.20;99.90;;;;;;5072642;28;20091;-74
2021/12/22 05:21:50;;;;;;;21.88;13.00;;;-2.20;99.90;;;;;;5063567;28;20168;-74
2021/12/22 05:24:16;;;;;;;22.73;13.35;;;-2.20;99.90;;;;;;5072591;28;20040;-74
2021/12/22 05:26:41;;;;;;;20.65;12.38;;;-2.20;99.90;;;;;;5090424;28;20044;-74
2021/12/22 05:29:07;;;;;;;20.05;12.40;;;-2.20;99.90;;;;;;5089971;28;20401;-74
2021/12/22 05:31:33;;;;;;;23.10;12.68;;;-2.30;99.90;;;;;;5090522;28;20093;-74
2021/12/22 05:33:58;;;;;;;19.08;11.88;;;-2.30;99.90;;;;;;5072238;28;20101;-74
2021/12/22 05:36:24;;;;;;;19.77;11.45;;;-2.30;99.90;;;;;;5072711;28;20150;-74
2021/12/22 05:38:50;;;;;;;23.17;12.95;;;-2.40;99.90;;;;;;5072261;28;20036;-74
2021/12/22 05:41:16;;;;;;;23.17;12.48;;;-2.40;99.90;;;;;;5071645;28;20041;-74
2021/12/22 05:43:41;;;;;;;22.10;12.52;;;-2.40;99.90;;;;;;5071692;28;20048;-74
2021/12/22 05:46:07;;;;;;;19.80;11.73;;;-2.40;99.90;;;;;;5052146;28;20398;-74
2021/12/22 05:48:33;;;;;;;22.92;12.57;;;-2.40;99.90;;;;;;5069891;28;20149;-74
2021/12/22 05:50:59;;;;;;;21.58;11.65;;;-2.40;99.90;;;;;;5051846;28;20494;-74
2021/12/22 05:53:25;;;;;;;20.95;11.65;;;-2.40;99.90;;;;;;5052227;28;20080;-75
2021/12/22 05:55:52;;;;;;;22.05;12.75;;;-2.50;99.90;;;;;;5051642;28;20049;-74
2021/12/22 05:58:18;;;;;;;23.58;13.55;;;-2.50;99.90;;;;;;5051821;28;20040;-74
2021/12/22 06:00:44;;;;;;;21.90;12.60;;;-2.50;99.90;;;;;;5051775;28;20063;-74
2021/12/22 06:03:10;;;;;;;22.45;12.93;;;-2.50;99.90;;;;;;5051981;28;20048;-74
2021/12/22 06:05:37;;;;;;;22.65;12.50;;;-2.50;99.90;;;;;;5051468;28;20135;-74
2021/12/22 06:08:03;;;;;;;26.00;13.60;;;-2.50;99.90;;;;;;5034725;28;20078;-74
2021/12/22 06:10:29;;;;;;;24.65;13.15;;;-2.50;99.90;;;;;;5051767;28;20521;-74
2021/12/22 06:12:55;;;;;;;21.50;13.02;;;-2.50;99.90;;;;;;5051517;28;20048;-74
2021/12/22 06:15:21;;;;;;;23.83;12.88;;;-2.50;99.90;;;;;;5051350;28;20052;-74
2021/12/22 06:17:53;;;;;;;23.35;13.15;;;-2.50;99.90;;;;;;5051577;28;20044;-75
2021/12/22 06:20:18;;;;;;;24.83;14.20;;;-2.60;99.90;;;;;;5034663;28;20095;-75
2021/12/22 06:22:44;;;;;;;26.75;13.75;;;-2.60;99.90;;;;;;5069111;28;22098;-74
2021/12/22 06:25:10;;;;;;;28.30;14.32;;;-2.60;99.90;;;;;;5051906;28;20060;-74
2021/12/22 06:27:35;;;;;;;25.67;14.43;;;-2.60;99.90;;;;;;5051204;28;20090;-74
2021/12/22 06:30:01;;;;;;;23.52;13.38;;;-2.60;99.90;;;;;;5050940;28;20190;-74
2021/12/22 06:32:27;;;;;;;24.90;14.48;;;-2.60;99.90;;;;;;5067571;28;20053;-74
2021/12/22 06:34:52;;;;;;;22.38;14.18;;;-2.60;99.90;;;;;;5050866;28;20045;-74
2021/12/22 06:37:18;;;;;;;26.45;14.18;;;-2.70;99.90;;;;;;5051430;28;20049;-73
2021/12/22 06:39:44;;;;;;;25.85;13.82;;;-2.70;99.90;;;;;;5069312;28;20036;-72
2021/12/22 06:42:10;;;;;;;24.52;13.95;;;-2.70;99.90;;;;;;5051374;28;20045;-72
2021/12/22 06:44:35;;;;;;;27.20;14.13;;;-2.80;99.90;;;;;;5073478;28;20036;-73
2021/12/22 06:47:01;;;;;;;26.05;14.07;;;-2.80;99.90;;;;;;5086642;28;20055;-73
2021/12/22 06:49:27;;;;;;;25.02;14.60;;;-2.80;99.90;;;;;;5070908;28;20052;-73
2021/12/22 06:51:52;;;;;;;26.88;14.25;;;-2.80;99.90;;;;;;5044315;28;20044;-73
2021/12/22 06:54:18;;;;;;;25.63;14.40;;;-2.80;99.90;;;;;;5051310;28;20044;-73
2021/12/22 06:56:44;;;;;;;25.73;14.65;;;-2.80;99.90;;;;;;5069020;28;20491;-73
2021/12/22 06:59:12;;;;;;;28.20;14.70;;;-2.80;99.90;;;;;;5051278;28;20084;-73
2021/12/22 07:01:38;;;;;;;27.60;14.68;;;-2.80;99.90;;;;;;5051383;28;20041;-73
2021/12/22 07:04:04;;;;;;;25.95;14.25;;;-2.80;99.90;;;;;;5069069;28;20048;-75
2021/12/22 07:06:30;;;;;;;27.52;16.02;;;-2.80;99.90;;;;;;5050658;28;20515;-73
2021/12/22 07:08:57;;;;;;;27.98;16.02;;;-2.80;99.90;;;;;;5050789;28;20139;-73
2021/12/22 07:11:23;;;;;;;26.75;14.20;;;-2.80;99.90;;;;;;5069400;28;20049;-75
2021/12/22 07:13:48;;;;;;;27.75;15.27;;;-2.80;99.90;;;;;;5051264;28;20059;-75
2021/12/22 07:16:14;;;;;;;26.70;14.63;;;-2.80;99.90;;;;;;5050876;28;20054;-75
2021/12/22 07:18:40;;;;;;;30.10;14.98;;;-2.80;99.90;;;;;;5068986;28;20133;-75
2021/12/22 07:21:06;;;;;;;30.15;15.88;;;-2.80;99.90;;;;;;5051042;28;20079;-75
2021/12/22 07:23:32;;;;;;;28.20;14.27;;;-2.80;99.90;;;;;;5050972;28;20644;-75
2021/12/22 07:25:57;;;;;;;27.27;14.65;;;-2.80;99.90;;;;;;5051244;28;20045;-75
2021/12/22 07:28:23;;;;;;;27.58;13.98;;;-2.80;99.90;;;;;;5050669;28;20557;-75
2021/12/22 07:30:49;;;;;;;26.42;14.32;;;-2.90;99.90;;;;;;5050841;28;20044;-73
2021/12/22 07:33:15;;;;;;;32.13;15.23;;;-2.90;99.90;;;;;;5050970;28;20044;-73
2021/12/22 07:35:58;;;;;;;26.33;14.63;;;-2.90;99.90;;;;;;5050744;28;20044;-73
2021/12/22 07:38:24;;;;;;;27.77;15.00;;;-2.90;99.90;;;;;;5051200;28;20442;-73
2021/12/22 07:40:53;;;;;;;29.38;14.85;;;-2.90;99.90;;;;;;5050048;28;20048;-73
2021/12/22 07:43:19;;;;;;;27.52;14.90;;;-2.80;99.90;;;;;;5050597;28;20071;-73
2021/12/22 07:45:45;;;;;;;32.63;15.65;;;-2.80;99.90;;;;;;5070676;28;20043;-75
2021/12/22 07:48:11;;;;;;;29.98;15.75;;;-2.80;99.90;;;;;;5092274;28;20051;-75
2021/12/22 07:50:37;;;;;;;29.08;16.08;;;-2.80;99.90;;;;;;5057555;28;20054;-73
2021/12/22 07:53:03;;;;;;;26.90;15.15;;;-2.80;99.90;;;;;;5092405;28;20079;-74
2021/12/22 07:55:28;;;;;;;34.15;14.93;;;-2.80;99.90;;;;;;5073610;28;20044;-73
2021/12/22 07:57:54;;;;;;;29.67;14.88;;;-2.80;99.90;;;;;;5057478;28;20089;-74
2021/12/22 08:00:20;;;;;;;26.42;14.65;;;-2.80;99.90;;;;;;5074030;28;20048;-75
2021/12/22 08:02:45;;;;;;;30.98;15.15;;;-2.70;99.90;;;;;;5073769;28;20051;-73
2021/12/22 08:05:11;;;;;;;29.67;15.02;;;-2.70;99.90;;;;;;5073241;28;20120;-73
2021/12/22 08:07:37;;;;;;;28.65;14.10;;;-2.70;99.90;;;;;;5073667;28;20441;-73
2021/12/22 08:10:07;;;;;;;29.58;14.52;;;-2.70;99.90;;;;;;5073382;28;20561;-73
2021/12/22 08:12:33;;;;;;;34.78;16.17;;;-2.70;99.90;;;;;;5091550;28;20040;-73
2021/12/22 08:14:59;;;;;;;30.48;15.38;;;-2.70;99.90;;;;;;5056276;28;20135;-73
2021/12/22 08:17:27;;;;;;;30.15;15.25;;;-2.70;99.90;;;;;;5056705;28;20047;-73
2021/12/22 08:19:54;;;;;;;26.23;14.57;;;-2.60;99.90;;;;;;5091173;28;20066;-73
2021/12/22 08:22:20;;;;;;;26.92;14.65;;;-2.60;99.90;;;;;;5091834;28;20466;-73
2021/12/22 08:24:45;;;;;;;29.05;15.45;;;-2.60;99.90;;;;;;5056699;28;20040;-73
2021/12/22 08:27:12;;;;;;;27.88;14.45;;;-2.60;99.90;;;;;;5073386;28;20040;-73
2021/12/22 08:29:42;;;;;;;29.23;15.15;;;-2.50;99.90;;;;;;5073098;28;20044;-73
2021/12/22 08:32:09;;;;;;;27.23;14.57;;;-2.50;99.90;;;;;;5056751;28;20048;-73
2021/12/22 08:34:38;;;;;;;27.42;15.18;;;-2.50;99.90;;;;;;5091511;28;20111;-73
2021/12/22 08:39:49;;;;;;;28.83;14.73;;;-2.40;99.90;;;;;;5073057;28;20059;-73
2021/12/22 08:42:15;;;;;;;26.27;15.00;;;-2.40;99.90;;;;;;5091445;28;20046;-73
2021/12/22 08:44:40;;;;;;;30.23;14.95;;;-2.30;99.90;;;;;;5082466;28;20044;-73
2021/12/22 08:47:07;;;;;;;29.67;14.98;;;-2.30;99.90;;;;;;5036403;28;20041;-73
2021/12/22 08:49:33;;;;;;;29.45;14.45;;;-2.30;99.90;;;;;;5053204;28;20076;-73
2021/12/22 08:51:59;;;;;;;26.30;15.50;;;-2.20;99.90;;;;;;5053141;28;20037;-73
2021/12/22 08:54:25;;;;;;;27.70;15.90;;;-2.20;99.90;;;;;;5052466;28;20044;-74
2021/12/22 08:56:51;;;;;;;26.13;14.52;;;-2.20;99.90;;;;;;5052893;28;20044;-73
2021/12/22 08:59:18;;;;;;;29.25;16.52;;;-2.10;99.90;;;;;;5035995;28;20044;-73
2021/12/22 09:01:43;;;;;;;30.05;15.30;;;-2.10;99.90;;;;;;5051928;28;20052;-73
2021/12/22 09:04:09;;;;;;;34.25;16.67;;;-2.00;99.90;;;;;;5051819;28;20044;-74
2021/12/22 09:06:35;;;;;;;28.05;16.08;;;-2.00;99.90;;;;;;5051170;28;20048;-74
2021/12/22 09:09:01;;;;;;;28.15;15.52;;;-2.00;99.90;;;;;;5034943;28;20060;-73
2021/12/22 09:11:27;;;;;;;32.40;16.40;;;-1.90;99.90;;;;;;5051917;28;20056;-73
2021/12/22 09:13:53;;;;;;;29.00;15.40;;;-1.90;99.90;;;;;;5034910;28;20049;-73
2021/12/22 09:16:18;;;;;;;28.05;15.82;;;-1.90;99.90;;;;;;5051424;28;20044;-73
2021/12/22 09:18:44;;;;;;;27.45;16.00;;;-1.80;99.90;;;;;;5051155;28;20101;-73
2021/12/22 09:21:11;;;;;;;30.50;14.88;;;-1.80;99.90;;;;;;5051682;28;20060;-73
2021/12/22 09:23:38;;;;;;;21.30;13.05;;;-1.70;99.90;;;;;;5034917;28;20119;-73
2021/12/22 09:26:05;;;;;;;24.27;14.60;;;-1.70;99.90;;;;;;5051502;28;20049;-73
2021/12/22 09:28:31;;;;;;;26.80;15.00;;;-1.70;99.90;;;;;;5051991;28;20059;-73
2021/12/22 09:30:57;;;;;;;26.23;15.68;;;-1.60;99.90;;;;;;5069686;28;20053;-73
2021/12/22 09:33:25;;;;;;;26.33;14.80;;;-1.60;99.90;;;;;;5052547;28;20041;-73
2021/12/22 09:35:52;;;;;;;28.65;16.20;;;-1.50;99.90;;;;;;5051347;28;20050;-73
2021/12/22 09:38:18;;;;;;;27.85;15.73;;;-1.50;99.90;;;;;;5051392;28;20127;-73
2021/12/22 09:40:45;;;;;;;30.15;15.90;;;-1.40;99.90;;;;;;5051971;28;20036;-73
2021/12/22 09:43:11;;;;;;;29.33;16.77;;;-1.40;99.90;;;;;;5052039;28;20130;-73
2021/12/22 09:45:43;;;;;;;26.13;16.35;;;-1.30;99.90;;;;;;5051786;28;20091;-73
2021/12/22 09:50:50;;;;;;;30.20;15.63;;;-1.20;99.90;;;;;;5071670;28;20078;-73
2021/12/22 09:53:20;;;;;;;;;;;-1.20;99.90;;;;;;5072161;28;20052;-75
2021/12/22 09:55:46;;;;;;;;;;;-1.10;99.90;;;;;;5090751;28;20020;-74
2021/12/22 09:58:12;;;;;;;;;;;-1.10;99.90;;;;;;5090228;28;20309;-74
2021/12/22 10:00:39;;;;;;;;;;;-1.00;99.90;;;;;;5090455;28;19981;-74
2021/12/22 10:03:05;;;;;;;;;;;-1.00;99.90;;;;;;5090244;28;20484;-74
2021/12/22 10:05:31;;;;;;;;;;;-0.90;99.90;;;;;;5072366;28;19919;-74
2021/12/22 10:08:03;;;;;;;;;;;-0.90;99.90;;;;;;5089537;28;19920;-74
2021/12/22 10:10:30;;;;;;;;;;;-0.80;99.90;;;;;;5071988;28;20296;-74
2021/12/22 10:13:11;;;;;;;;;;;-0.80;99.90;;;;;;5072234;28;19920;-74
2021/12/22 10:15:37;;;;;;;;;;;-0.70;99.90;;;;;;5055816;28;19920;-74
2021/12/22 10:18:08;;;;;;;;;;;-0.70;99.90;;;;;;5071964;28;19955;-74
2021/12/22 10:20:33;;;;;;;;;;;-0.70;99.90;;;;;;5072005;28;19924;-74
2021/12/22 10:22:59;;;;;;;;;;;-0.60;99.90;;;;;;5071362;28;19931;-74
2021/12/22 10:25:29;;;;;;;28.27;15.25;;;-0.60;99.90;;;;;;5071905;28;19920;-74
2021/12/22 10:28:06;;;;;;;28.02;15.60;;;-0.50;99.90;;;;;;5071598;28;20422;-74
2021/12/22 10:30:35;;;;;;;29.15;16.50;;;-0.50;99.90;;;;;;5071417;28;20063;-74
2021/12/22 10:33:11;;;;;;;31.20;15.43;;;-0.40;99.90;;;;;;5054846;28;20720;-74
2021/12/22 10:35:38;;;;;;;27.25;15.93;;;-0.30;99.90;;;;;;5071257;28;20492;-74
2021/12/22 10:38:06;;;;;;;33.97;22.33;;;-0.30;99.90;;;;;;5070033;28;20398;-74
2021/12/22 10:40:43;;;;;;;33.75;21.15;;;-0.20;99.90;;;;;;5070159;28;20410;-74
2021/12/22 10:43:17;;;;;;;28.73;16.15;;;-0.20;99.90;;;;;;5071482;28;20079;-74
2021/12/22 10:45:45;;;;;;;30.70;16.55;;;-0.10;99.90;;;;;;5054388;28;20045;-74
2021/12/22 10:50:59;;;;;;;28.98;19.17;;;0.30;99.90;;;;;;5049899;28;20419;-74
2021/12/22 10:53:25;;;;;;;29.52;20.27;;;0.40;99.90;;;;;;5050567;28;21154;-74
2021/12/22 10:55:55;;;;;;;27.52;16.13;;;0.50;99.90;;;;;;5051296;28;20091;-74
2021/12/22 10:58:34;;;;;;;26.02;15.43;;;0.50;99.90;;;;;;5051195;28;20119;-75
2021/12/22 11:01:12;;;;;;;25.42;14.52;;;0.60;99.90;;;;;;5051220;28;20505;-75
2021/12/22 11:03:41;;;;;;;24.52;14.23;;;0.70;99.90;;;;;;5051156;28;20036;-75
2021/12/22 11:06:28;;;;;;;23.85;13.77;;;0.80;99.90;;;;;;5047695;28;20061;-75
2021/12/22 11:09:10;;;;;;;24.40;13.88;;;0.80;99.90;;;;;;5047690;28;20139;-74
2021/12/22 11:11:46;;;;;;;21.15;13.40;;;0.80;99.90;;;;;;5047483;28;20043;-75
2021/12/22 11:14:19;;;;;;;25.75;14.90;;;1.00;99.90;;;;;;5047424;28;20049;-75
2021/12/22 11:16:55;;;;;;;22.10;12.73;;;1.10;99.90;;;;;;5047864;28;20060;-74
2021/12/22 11:19:23;;;;;;;19.98;12.07;;;1.10;99.90;;;;;;5050898;28;20384;-75
2021/12/22 11:22:11;;;;;;;24.08;12.90;;;1.10;99.90;;;;;;5051002;28;20041;-75
2021/12/22 11:25:11;;;;;;;21.00;12.30;;;1.20;99.90;;;;;;5034446;28;20499;-75
2021/12/22 11:27:37;;;;;;;20.73;11.32;;;1.20;99.90;;;;;;5050244;28;20115;-75
2021/12/22 11:30:03;;;;;;;24.45;12.98;;;1.30;99.90;;;;;;5034278;28;20480;-75
2021/12/22 11:32:30;;;;;;;23.17;12.70;;;1.30;99.90;;;;;;5034404;28;20045;-75
2021/12/22 11:35:02;;;;;;;17.85;11.93;;;1.30;99.90;;;;;;5051286;28;20095;-75
2021/12/22 11:37:29;;;;;;;17.65;11.30;;;1.40;99.90;;;;;;5052417;28;20044;-75
2021/12/22 11:39:57;;;;;;;21.88;12.30;;;1.40;99.90;;;;;;5052191;28;20091;-75
2021/12/22 11:42:27;;;;;;;20.70;11.65;;;1.30;99.90;;;;;;5052090;28;20687;-75
2021/12/22 11:44:55;;;;;;;21.60;11.60;;;1.30;99.90;;;;;;5051927;28;20048;-75
2021/12/22 11:47:21;;;;;;;17.70;10.93;;;1.30;99.90;;;;;;5052423;28;20076;-75
2021/12/22 11:49:56;;;;;;;19.02;10.32;;;1.20;99.90;;;;;;5050906;28;20049;-75
2021/12/22 11:52:43;;;;;;;18.13;10.07;;;1.10;99.90;;;;;;5051120;28;20075;-74
2021/12/22 11:55:20;;;;;;;19.02;10.43;;;1.10;99.90;;;;;;5050521;28;20045;-75
2021/12/22 11:57:48;;;;;;;18.67;11.25;;;1.00;99.90;;;;;;5034263;28;20059;-77
2021/12/22 12:00:30;;;;;;;19.05;10.90;;;1.00;99.90;;;;;;5050824;28;20052;-75
2021/12/22 12:02:58;;;;;;;17.58;10.20;;;0.90;99.90;;;;;;5050781;28;20071;-75
2021/12/22 12:05:33;;;;;;;17.98;10.38;;;0.90;99.90;;;;;;5050458;28;20051;-75
2021/12/22 12:08:03;;;;;;;17.77;10.75;;;0.90;99.90;;;;;;5049317;28;20056;-75
2021/12/22 12:10:38;;;;;;;15.95;10.02;;;0.90;99.90;;;;;;5050288;28;20442;-75
2021/12/22 12:13:14;;;;;;;19.83;11.65;;;1.00;99.90;;;;;;5050253;28;20113;-75
2021/12/22 12:21:57;;;;;;;19.00;11.45;;;1.10;99.90;;;;;;5050578;28;20110;-75
2021/12/22 12:24:40;;;;;;;15.95;10.38;;;1.10;99.90;;;;;;5049932;28;20068;-75
2021/12/22 12:27:32;;;;;;;18.67;10.93;;;1.10;99.90;;;;;;5050000;28;20131;-75
2021/12/22 12:30:11;;;;;;;17.33;11.30;;;1.20;99.90;;;;;;5048867;28;20183;-75
2021/12/22 12:32:40;;;;;;;16.40;10.13;;;1.20;99.90;;;;;;5050306;28;20045;-75
2021/12/22 12:35:18;;;;;;;19.15;10.75;;;1.20;99.90;;;;;;5049766;28;20048;-75
2021/12/22 12:38:00;;;;;;;17.83;10.55;;;1.30;99.90;;;;;;5032043;28;20080;-75
2021/12/22 12:41:00;;;;;;;21.58;10.77;;;1.20;99.90;;;;;;5050244;28;20772;-75
2021/12/22 12:43:49;;;;;;;19.13;11.23;;;1.10;99.90;;;;;;5049113;28;20049;-75
2021/12/22 12:46:21;;;;;;;16.80;10.63;;;1.10;99.90;;;;;;5029520;28;20131;-75
2021/12/22 12:48:49;;;;;;;19.55;10.57;;;1.10;99.90;;;;;;5028703;28;20053;-75
2021/12/22 12:51:17;;;;;;;18.65;11.45;;;1.20;99.90;;;;;;5012600;28;20049;-75
2021/12/22 12:53:46;;;;;;;21.17;12.15;;;1.20;99.90;;;;;;5029277;28;20389;-75
2021/12/22 12:56:14;;;;;;;19.23;12.02;;;1.30;99.90;;;;;;5028863;28;20064;-75
2021/12/22 12:58:54;;;;;;;20.58;12.38;;;1.30;99.90;;;;;;5028938;28;20056;-75
2021/12/22 13:01:46;;;;;;;23.63;12.50;;;1.30;99.90;;;;;;5028990;28;20053;-76
2021/12/22 13:04:32;;;;;;;19.30;12.55;;;1.30;99.90;;;;;;5011807;28;20547;-75
2021/12/22 13:07:07;;;;;;;18.92;11.20;;;1.30;99.90;;;;;;5039262;28;20061;-75
2021/12/22 13:09:38;;;;;;;20.20;12.63;;;1.40;99.90;;;;;;5048470;28;20359;-75
2021/12/22 13:17:29;;;;;;;21.30;12.43;;;1.20;99.90;;;;;;5048724;28;20053;-75